Time;durP1;ratioP1;P1;durP2;ratioP2;P2;SDS_P1;SDS_P2;PMS_P1;PMS_P2;Temp;Humidity;BMP_temperature;BMP_pressure;BME280_temperature;BME280_humidity;BME280_pressure;Samples;Min_cycle;Max_cycle;Signal;HPM_P1;HPM_P2
2022/04/13 00:01:13;;;;;;;9.32;5.20;;;14.40;32.90;;;;;;5030345;28;20755;-74
2022/04/13 00:03:39;;;;;;;9.30;5.10;;;14.50;32.60;;;;;;5029890;28;20402;-74
2022/04/13 00:06:04;;;;;;;7.70;5.10;;;14.50;31.70;;;;;;5028717;28;20444;-75
2022/04/13 00:08:31;;;;;;;12.07;4.97;;;14.60;32.80;;;;;;5027757;28;20994;-74
2022/04/13 00:10:57;;;;;;;12.30;5.25;;;14.60;31.70;;;;;;5030448;28;20403;-74
2022/04/13 00:13:22;;;;;;;7.93;5.10;;;14.50;31.20;;;;;;5030876;28;20414;-74
2022/04/13 00:15:48;;;;;;;9.10;5.17;;;14.50;31.50;;;;;;5038602;28;20398;-74
2022/04/13 00:18:14;;;;;;;9.97;5.10;;;14.60;31.00;;;;;;5035554;28;20457;-74
2022/04/13 00:20:40;;;;;;;9.73;5.00;;;14.60;31.00;;;;;;5046782;28;20802;-74
2022/04/13 00:23:07;;;;;;;9.02;5.50;;;14.50;30.90;;;;;;5032041;28;20482;-74
2022/04/13 00:25:33;;;;;;;9.52;5.53;;;14.50;30.90;;;;;;5041569;28;20783;-73
2022/04/13 00:27:59;;;;;;;14.40;5.25;;;14.60;31.20;;;;;;5024878;28;20399;-75
2022/04/13 00:30:25;;;;;;;8.18;5.18;;;14.50;30.80;;;;;;5031368;28;20497;-75
2022/04/13 00:32:51;;;;;;;12.95;5.50;;;14.50;31.00;;;;;;5033756;28;20965;-75
2022/04/13 00:35:17;;;;;;;11.63;5.50;;;14.40;31.20;;;;;;5049060;28;20406;-74
2022/04/13 00:37:42;;;;;;;10.48;5.40;;;14.40;30.90;;;;;;5037373;28;20790;-74
2022/04/13 00:40:09;;;;;;;10.13;5.83;;;14.40;30.90;;;;;;5034351;28;20401;-74
2022/04/13 00:42:34;;;;;;;10.60;5.60;;;14.30;31.10;;;;;;5032026;28;20907;-74
2022/04/13 00:45:00;;;;;;;7.72;5.10;;;14.30;31.00;;;;;;5029596;28;20410;-74
2022/04/13 00:47:26;;;;;;;9.77;5.20;;;14.30;30.80;;;;;;5032048;28;20403;-74
2022/04/13 00:49:54;;;;;;;8.70;5.05;;;14.30;31.20;;;;;;5034409;28;20876;-74
2022/04/13 00:52:21;;;;;;;9.32;4.90;;;14.30;31.30;;;;;;5035310;28;20391;-74
2022/04/13 00:54:48;;;;;;;13.60;5.68;;;14.30;32.10;;;;;;5048428;28;20410;-73
2022/04/13 00:57:17;;;;;;;10.23;5.00;;;14.20;31.30;;;;;;5031757;28;20402;-74
2022/04/13 00:59:45;;;;;;;8.07;5.05;;;14.30;31.40;;;;;;5035093;28;20395;-73
2022/04/13 01:02:12;;;;;;;7.80;5.20;;;14.20;31.60;;;;;;5030680;28;20403;-74
2022/04/13 01:04:38;;;;;;;10.43;5.20;;;14.20;31.50;;;;;;5032051;28;20399;-74
2022/04/13 01:07:08;;;;;;;8.13;4.70;;;14.30;31.30;;;;;;5030564;28;20407;-75
2022/04/13 01:09:35;;;;;;;11.80;5.18;;;14.30;31.90;;;;;;5031999;28;20519;-74
2022/04/13 01:12:00;;;;;;;8.05;5.00;;;14.30;31.20;;;;;;5031731;28;20390;-72
2022/04/13 01:14:26;;;;;;;8.52;4.93;;;14.40;30.60;;;;;;5032035;28;20552;-74
2022/04/13 01:16:51;;;;;;;8.27;4.83;;;14.40;31.20;;;;;;5031912;28;20469;-74
2022/04/13 01:19:18;;;;;;;9.20;4.90;;;14.40;31.00;;;;;;5032040;28;20398;-74
2022/04/13 01:21:47;;;;;;;6.88;4.30;;;14.40;30.70;;;;;;5031705;28;20824;-74
2022/04/13 01:24:14;;;;;;;13.00;5.00;;;14.40;30.60;;;;;;5030873;28;20402;-74
2022/04/13 01:26:40;;;;;;;8.63;4.60;;;14.50;30.10;;;;;;5032865;28;20410;-74
2022/04/13 01:29:06;;;;;;;12.98;4.18;;;14.50;29.60;;;;;;5028087;28;20414;-74
2022/04/13 01:31:33;;;;;;;8.15;4.32;;;14.60;29.20;;;;;;5038341;28;20745;-74
2022/04/13 01:33:59;;;;;;;6.90;4.03;;;14.50;29.30;;;;;;5032224;28;20395;-74
2022/04/13 01:36:25;;;;;;;5.33;4.20;;;14.50;29.00;;;;;;5030455;28;20431;-74
2022/04/13 01:38:51;;;;;;;11.27;4.72;;;14.50;29.00;;;;;;5031389;28;20414;-74
2022/04/13 01:41:17;;;;;;;9.52;4.80;;;14.40;28.90;;;;;;5028216;28;20386;-74
2022/04/13 01:43:42;;;;;;;7.72;4.60;;;14.40;29.40;;;;;;5030467;28;20478;-75
2022/04/13 01:46:08;;;;;;;10.45;4.20;;;14.30;29.70;;;;;;5031400;28;20422;-74
2022/04/13 01:48:34;;;;;;;9.87;4.60;;;14.30;30.10;;;;;;5031243;28;20390;-75
2022/04/13 01:50:59;;;;;;;7.90;4.40;;;14.30;30.40;;;;;;5030564;28;20737;-75
2022/04/13 01:53:25;;;;;;;7.77;3.93;;;14.20;30.70;;;;;;5035401;28;20398;-75
2022/04/13 01:55:51;;;;;;;7.90;4.70;;;14.10;30.00;;;;;;5032355;28;20395;-75
2022/04/13 01:58:17;;;;;;;5.63;4.03;;;14.00;30.50;;;;;;5034797;28;20738;-75
2022/04/13 02:00:43;;;;;;;5.90;3.90;;;13.90;31.00;;;;;;5032016;28;20398;-74
2022/04/13 02:03:08;;;;;;;7.57;4.30;;;13.80;31.40;;;;;;5030377;28;20409;-74
2022/04/13 02:05:34;;;;;;;11.68;4.78;;;13.80;31.20;;;;;;5030838;28;20787;-74
2022/04/13 02:08:00;;;;;;;11.17;4.70;;;13.70;31.80;;;;;;5030599;28;20737;-74
2022/04/13 02:10:25;;;;;;;7.33;4.13;;;13.70;31.80;;;;;;5030884;28;20410;-75
2022/04/13 02:12:51;;;;;;;10.47;4.20;;;13.60;32.10;;;;;;5027629;28;20412;-74
2022/04/13 02:15:17;;;;;;;9.02;4.57;;;13.50;32.40;;;;;;5025164;28;20482;-74
2022/04/13 02:17:43;;;;;;;8.45;4.40;;;13.50;32.70;;;;;;5033117;28;20415;-73
2022/04/13 02:20:09;;;;;;;8.98;4.50;;;13.40;33.10;;;;;;5032039;28;20842;-74
2022/04/13 02:22:35;;;;;;;7.50;4.70;;;13.40;33.10;;;;;;5029963;28;20403;-74
2022/04/13 02:25:02;;;;;;;5.70;3.70;;;13.30;33.20;;;;;;5030338;28;20956;-74
2022/04/13 02:27:27;;;;;;;9.27;4.00;;;13.30;33.50;;;;;;5027386;28;20902;-73
2022/04/13 02:29:53;;;;;;;7.57;4.97;;;13.30;33.60;;;;;;5029978;28;20413;-74
2022/04/13 02:32:18;;;;;;;8.70;5.00;;;13.30;33.90;;;;;;5041367;28;20453;-74
2022/04/13 02:34:45;;;;;;;7.20;4.50;;;13.30;34.40;;;;;;5030717;28;20473;-73
2022/04/13 02:37:11;;;;;;;6.90;4.43;;;13.30;33.90;;;;;;5028330;28;20402;-73
2022/04/13 02:39:37;;;;;;;9.90;4.43;;;13.30;33.80;;;;;;5029237;28;20399;-73
2022/04/13 02:42:04;;;;;;;8.68;3.80;;;13.30;34.30;;;;;;5027484;28;20407;-72
2022/04/13 02:44:30;;;;;;;11.75;5.05;;;13.20;34.50;;;;;;5029843;28;20402;-73
2022/04/13 02:46:56;;;;;;;5.40;4.30;;;13.20;34.70;;;;;;5029880;28;20396;-73
2022/04/13 02:49:22;;;;;;;6.70;4.30;;;13.10;34.90;;;;;;5030158;28;20415;-73
2022/04/13 02:51:48;;;;;;;6.33;4.80;;;13.10;34.90;;;;;;5029873;28;20486;-74
2022/04/13 02:54:13;;;;;;;8.87;5.00;;;13.10;35.20;;;;;;5030763;28;20726;-76
2022/04/13 02:56:39;;;;;;;7.03;4.60;;;13.10;35.70;;;;;;5031605;28;20429;-75
2022/04/13 02:59:04;;;;;;;8.73;4.68;;;13.10;35.90;;;;;;5027680;28;20395;-75
2022/04/13 03:01:30;;;;;;;9.88;4.50;;;13.00;36.20;;;;;;5029907;28;20406;-74
2022/04/13 03:03:56;;;;;;;7.43;4.30;;;13.00;36.90;;;;;;5028436;28;20903;-75
2022/04/13 03:06:22;;;;;;;13.95;5.30;;;13.10;36.70;;;;;;5030252;28;20391;-75
2022/04/13 03:08:48;;;;;;;8.32;4.80;;;13.00;37.10;;;;;;5030001;28;20391;-74
2022/04/13 03:11:13;;;;;;;9.05;5.30;;;12.90;37.80;;;;;;5030037;28;20411;-75
2022/04/13 03:13:39;;;;;;;9.27;4.50;;;12.90;38.80;;;;;;5025400;28;20397;-75
2022/04/13 03:16:04;;;;;;;6.50;4.55;;;12.90;38.90;;;;;;5029795;28;20395;-76
2022/04/13 03:18:30;;;;;;;10.40;4.80;;;12.90;38.40;;;;;;5028583;28;20442;-75
2022/04/13 03:20:56;;;;;;;7.85;4.90;;;12.90;38.20;;;;;;5029792;28;20470;-74
2022/04/13 03:23:21;;;;;;;9.98;5.28;;;13.00;38.20;;;;;;5025632;28;20396;-74
2022/04/13 03:25:48;;;;;;;7.20;5.30;;;13.00;38.50;;;;;;5023800;28;20407;-75
2022/04/13 03:28:14;;;;;;;7.35;4.70;;;12.90;38.80;;;;;;5030808;28;20391;-75
2022/04/13 03:30:40;;;;;;;9.02;5.05;;;12.90;38.60;;;;;;5030355;28;20513;-74
2022/04/13 03:33:05;;;;;;;10.37;5.10;;;13.00;38.30;;;;;;5030089;28;20435;-75
2022/04/13 03:35:31;;;;;;;10.37;5.30;;;13.00;38.20;;;;;;5030620;28;20872;-73
2022/04/13 03:37:56;;;;;;;6.57;5.30;;;13.10;37.70;;;;;;5028703;28;20474;-74
2022/04/13 03:40:23;;;;;;;8.13;5.10;;;13.10;37.70;;;;;;5024153;28;20418;-73
2022/04/13 03:42:49;;;;;;;8.03;5.10;;;13.10;38.00;;;;;;5031261;28;20445;-75
2022/04/13 03:45:14;;;;;;;7.93;4.53;;;13.10;38.30;;;;;;5034200;28;20402;-75
2022/04/13 03:47:41;;;;;;;7.85;5.10;;;13.10;37.90;;;;;;5036826;28;20836;-75
2022/04/13 03:50:08;;;;;;;11.70;5.25;;;13.10;37.90;;;;;;5038303;28;20558;-74
2022/04/13 03:52:34;;;;;;;15.00;5.50;;;13.10;37.80;;;;;;5039058;28;20418;-75
2022/04/13 03:55:05;;;;;;;7.83;5.30;;;13.10;38.10;;;;;;5038783;28;20755;-74
2022/04/13 03:57:31;;;;;;;8.32;5.45;;;13.10;38.20;;;;;;5038379;28;20452;-74
2022/04/13 03:59:57;;;;;;;13.45;5.45;;;13.10;38.10;;;;;;5040988;28;20899;-75
2022/04/13 04:02:23;;;;;;;8.57;4.95;;;13.20;38.50;;;;;;5039889;28;20403;-75
2022/04/13 04:04:48;;;;;;;10.65;5.80;;;13.30;37.50;;;;;;5038914;28;20532;-74
2022/04/13 04:07:15;;;;;;;10.40;5.80;;;13.20;37.70;;;;;;5034336;28;20426;-75
2022/04/13 04:09:40;;;;;;;10.68;5.35;;;13.20;37.90;;;;;;5035582;28;20498;-75
2022/04/13 04:12:07;;;;;;;9.40;5.37;;;13.20;38.00;;;;;;5036474;28;20505;-75
2022/04/13 04:14:32;;;;;;;8.52;5.30;;;13.30;37.80;;;;;;5033538;28;20760;-75
2022/04/13 04:16:58;;;;;;;8.20;5.32;;;13.30;37.80;;;;;;5031151;28;20403;-75
2022/04/13 04:19:23;;;;;;;12.95;5.55;;;13.30;37.80;;;;;;5028399;28;20410;-75
2022/04/13 04:21:49;;;;;;;10.90;5.33;;;13.20;38.30;;;;;;5034484;28;20395;-75
2022/04/13 04:24:15;;;;;;;6.30;4.90;;;13.20;39.00;;;;;;5031108;28;20440;-75
2022/04/13 04:26:42;;;;;;;9.50;5.20;;;13.10;39.00;;;;;;5044104;28;20461;-76
2022/04/13 04:29:08;;;;;;;9.40;5.38;;;13.10;39.00;;;;;;5032484;28;20395;-75
2022/04/13 04:34:20;;;;;;;12.75;5.80;;;13.10;39.50;;;;;;5030846;28;20405;-76
2022/04/13 04:36:46;;;;;;;14.93;6.30;;;13.00;39.70;;;;;;5029838;28;20445;-77
2022/04/13 04:39:11;;;;;;;10.60;5.77;;;13.00;39.80;;;;;;5033637;28;20395;-75
2022/04/13 04:41:39;;;;;;;13.40;5.47;;;13.00;39.80;;;;;;5032151;28;20395;-76
2022/04/13 04:44:05;;;;;;;9.98;6.15;;;13.10;39.50;;;;;;5036421;28;20391;-74
2022/04/13 04:46:30;;;;;;;11.48;5.72;;;13.00;39.70;;;;;;5036450;28;20402;-75
2022/04/13 04:48:56;;;;;;;11.37;6.17;;;13.10;40.00;;;;;;5036998;28;20395;-73
2022/04/13 04:51:38;;;;;;;15.38;5.60;;;13.00;40.00;;;;;;5035906;28;20514;-74
2022/04/13 04:54:04;;;;;;;21.42;6.80;;;13.00;40.10;;;;;;5032786;28;20803;-73
2022/04/13 04:56:37;;;;;;;13.63;6.70;;;13.00;40.00;;;;;;5035481;28;20410;-73
2022/04/13 04:59:05;;;;;;;16.88;7.00;;;13.10;40.40;;;;;;5032339;28;20399;-74
2022/04/13 05:01:31;;;;;;;18.10;6.80;;;13.10;40.60;;;;;;5035634;28;20482;-74
2022/04/13 05:03:57;;;;;;;17.60;6.97;;;13.10;40.60;;;;;;5033747;28;20461;-73
2022/04/13 05:06:28;;;;;;;19.80;7.53;;;13.10;40.60;;;;;;5031715;28;20409;-74
2022/04/13 05:08:57;;;;;;;24.23;8.20;;;13.10;41.10;;;;;;5029755;28;20449;-75
2022/04/13 05:11:23;;;;;;;15.97;7.00;;;13.10;41.10;;;;;;5031825;28;20395;-75
2022/04/13 05:13:49;;;;;;;24.30;7.53;;;13.20;41.10;;;;;;5030228;28;20406;-75
2022/04/13 05:16:16;;;;;;;16.75;6.78;;;13.40;40.30;;;;;;5040384;28;20403;-75
2022/04/13 05:18:43;;;;;;;21.00;7.25;;;13.40;40.30;;;;;;5031429;28;20407;-75
2022/04/13 05:21:09;;;;;;;18.90;6.15;;;13.30;39.70;;;;;;5036090;28;20398;-75
2022/04/13 05:23:35;;;;;;;16.95;6.90;;;13.30;40.20;;;;;;5029414;28;20416;-74
2022/04/13 05:26:01;;;;;;;11.93;6.55;;;13.30;40.00;;;;;;5034416;28;20421;-74
2022/04/13 05:28:29;;;;;;;12.57;6.35;;;13.30;40.20;;;;;;5035894;28;20831;-74
2022/04/13 05:30:55;;;;;;;21.13;7.05;;;13.30;39.90;;;;;;5033417;28;20415;-75
2022/04/13 05:33:21;;;;;;;16.33;6.97;;;13.30;39.90;;;;;;5030299;28;20805;-75
2022/04/13 05:35:47;;;;;;;17.67;6.72;;;13.40;39.80;;;;;;5034714;28;20598;-76
2022/04/13 05:38:12;;;;;;;18.00;7.10;;;13.40;39.60;;;;;;5031567;28;20747;-75
2022/04/13 05:40:38;;;;;;;16.10;7.75;;;13.40;39.30;;;;;;5032871;28;20421;-75
2022/04/13 05:43:04;;;;;;;17.20;7.15;;;13.50;39.50;;;;;;5044088;28;20399;-75
2022/04/13 05:45:29;;;;;;;16.55;6.90;;;13.60;38.90;;;;;;5031880;28;20398;-76
2022/04/13 05:47:56;;;;;;;14.70;7.20;;;13.60;38.70;;;;;;5028043;28;20400;-76
2022/04/13 05:50:25;;;;;;;23.60;7.97;;;13.80;37.80;;;;;;5029192;28;20411;-75
2022/04/13 05:52:51;;;;;;;16.05;7.20;;;13.90;37.60;;;;;;5029679;28;20402;-75
2022/04/13 05:55:17;;;;;;;21.70;7.60;;;14.00;36.60;;;;;;5027986;28;20399;-74
2022/04/13 05:57:42;;;;;;;21.80;6.90;;;14.10;36.40;;;;;;5037849;28;20479;-75
2022/04/13 06:00:11;;;;;;;20.40;6.78;;;14.30;35.40;;;;;;5037372;28;20391;-75
2022/04/13 06:02:38;;;;;;;20.45;7.60;;;14.50;34.40;;;;;;5038580;28;20512;-75
2022/04/13 06:05:05;;;;;;;9.50;7.13;;;14.60;34.40;;;;;;5038963;28;20405;-74
2022/04/13 06:07:31;;;;;;;12.35;7.60;;;14.70;34.40;;;;;;5039797;28;20403;-74
2022/04/13 06:10:01;;;;;;;12.32;7.78;;;14.70;34.00;;;;;;5037299;28;20502;-76
2022/04/13 06:12:27;;;;;;;20.48;8.20;;;14.70;34.00;;;;;;5030564;28;20436;-74
2022/04/13 06:15:00;;;;;;;13.15;6.88;;;14.80;34.00;;;;;;5032115;28;20397;-75
2022/04/13 06:17:29;;;;;;;15.25;7.03;;;14.90;33.80;;;;;;5031139;28;20399;-76
2022/04/13 06:19:55;;;;;;;20.48;7.43;;;15.00;34.40;;;;;;5028950;28;20399;-75
2022/04/13 06:22:21;;;;;;;13.97;7.67;;;15.10;34.60;;;;;;5034544;28;20406;-74
2022/04/13 06:24:51;;;;;;;23.87;8.90;;;15.10;34.20;;;;;;5032865;28;20399;-75
2022/04/13 06:27:16;;;;;;;14.00;8.33;;;15.10;34.40;;;;;;5024760;28;20463;-74
2022/04/13 06:29:42;;;;;;;14.37;7.70;;;15.10;34.40;;;;;;5029234;28;20407;-76
2022/04/13 06:32:08;;;;;;;19.03;8.70;;;15.00;34.50;;;;;;5031939;28;20395;-75
2022/04/13 06:34:34;;;;;;;19.55;8.80;;;15.10;34.40;;;;;;5025393;28;20434;-76
2022/04/13 06:36:59;;;;;;;20.48;8.50;;;15.10;34.10;;;;;;5033081;28;20433;-75
2022/04/13 06:39:25;;;;;;;22.45;8.93;;;15.20;33.70;;;;;;5033524;28;20410;-75
2022/04/13 06:41:50;;;;;;;23.88;9.40;;;15.20;33.40;;;;;;5034344;28;20441;-76
2022/04/13 06:44:16;;;;;;;15.70;7.90;;;15.40;33.10;;;;;;5036086;28;20421;-75
2022/04/13 06:46:41;;;;;;;18.40;8.80;;;15.40;32.90;;;;;;5030990;28;21745;-74
2022/04/13 06:49:07;;;;;;;18.37;9.00;;;15.60;32.60;;;;;;5029408;28;20444;-75
2022/04/13 06:51:33;;;;;;;19.80;8.38;;;16.00;31.20;;;;;;5031781;28;20457;-76
2022/04/13 06:53:59;;;;;;;20.95;9.07;;;16.00;31.10;;;;;;5033601;28;20399;-75
2022/04/13 06:56:24;;;;;;;17.23;9.05;;;15.90;31.20;;;;;;5034137;28;20403;-75
2022/04/13 06:58:50;;;;;;;16.15;8.82;;;16.00;31.20;;;;;;5034253;28;20399;-75
2022/04/13 07:01:15;;;;;;;17.63;8.53;;;16.10;30.70;;;;;;5028131;28;20905;-76
2022/04/13 07:03:41;;;;;;;20.90;9.63;;;16.30;30.40;;;;;;5022287;28;20411;-75
2022/04/13 07:06:07;;;;;;;19.38;8.88;;;16.60;28.40;;;;;;5028026;28;20416;-75
2022/04/13 07:08:32;;;;;;;22.02;8.98;;;16.80;27.70;;;;;;5028859;28;20441;-76
2022/04/13 07:10:59;;;;;;;27.15;9.70;;;16.60;27.60;;;;;;5029974;28;20494;-75
2022/04/13 07:13:24;;;;;;;29.60;9.80;;;16.50;28.10;;;;;;5023177;28;20387;-75
2022/04/13 07:15:52;;;;;;;26.35;10.43;;;16.30;28.70;;;;;;5030817;28;20417;-75
2022/04/13 07:18:19;;;;;;;27.48;9.68;;;16.30;28.90;;;;;;5027786;28;20545;-75
2022/04/13 07:20:44;;;;;;;27.60;9.47;;;16.50;28.20;;;;;;5023431;28;20406;-74
2022/04/13 07:23:10;;;;;;;38.77;12.17;;;16.70;27.60;;;;;;5033317;28;20390;-74
2022/04/13 07:25:36;;;;;;;30.70;11.93;;;17.00;26.40;;;;;;5029510;28;20410;-74
2022/04/13 07:28:02;;;;;;;37.15;11.73;;;17.00;26.00;;;;;;5039834;28;20407;-74
2022/04/13 07:30:28;;;;;;;33.25;12.30;;;17.00;26.60;;;;;;5030564;28;20508;-74
2022/04/13 07:33:01;;;;;;;25.90;11.27;;;17.10;26.40;;;;;;5035363;28;20390;-80
2022/04/13 07:35:28;;;;;;;30.55;12.35;;;17.20;26.20;;;;;;5030512;28;20452;-76
2022/04/13 07:37:54;;;;;;;30.70;12.00;;;17.30;25.60;;;;;;5033496;28;20468;-76
2022/04/13 07:40:20;;;;;;;25.90;12.00;;;17.40;25.50;;;;;;5032839;28;20493;-77
2022/04/13 07:42:45;;;;;;;29.50;12.53;;;17.40;25.20;;;;;;5028599;28;20391;-77
2022/04/13 07:45:12;;;;;;;27.40;11.47;;;17.40;25.30;;;;;;5044287;28;20500;-76
2022/04/13 07:47:38;;;;;;;25.40;11.30;;;17.40;25.80;;;;;;5036827;28;20398;-77
2022/04/13 07:50:04;;;;;;;27.80;11.43;;;17.40;25.50;;;;;;5033892;28;20486;-76
2022/04/13 07:52:34;;;;;;;24.35;10.63;;;17.40;25.70;;;;;;5034696;28;20410;-76
2022/04/13 07:55:01;;;;;;;28.88;12.00;;;17.30;26.10;;;;;;5028129;28;20510;-78
2022/04/13 07:57:27;;;;;;;29.55;13.10;;;17.40;26.50;;;;;;5035565;28;20422;-77
2022/04/13 07:59:52;;;;;;;33.53;13.37;;;17.40;25.60;;;;;;5034604;28;20407;-76
2022/04/13 08:02:22;;;;;;;34.27;14.10;;;17.60;25.10;;;;;;5031327;28;20391;-77
2022/04/13 08:04:48;;;;;;;26.70;12.40;;;17.60;25.60;;;;;;5027028;28;20432;-76
2022/04/13 08:07:14;;;;;;;40.90;13.30;;;17.60;25.60;;;;;;5028576;28;20483;-78
2022/04/13 08:09:40;;;;;;;28.20;12.60;;;18.00;24.60;;;;;;5025757;28;20472;-78
2022/04/13 08:12:06;;;;;;;23.05;13.45;;;17.90;24.40;;;;;;5022336;28;20384;-77
2022/04/13 08:14:32;;;;;;;26.75;12.50;;;17.90;24.80;;;;;;5030626;28;20970;-75
2022/04/13 08:16:58;;;;;;;26.80;13.40;;;18.10;24.20;;;;;;5031496;28;20406;-77
2022/04/13 08:19:23;;;;;;;33.33;14.60;;;18.20;24.10;;;;;;5033933;28;20419;-77
2022/04/13 08:21:50;;;;;;;28.33;12.98;;;18.20;24.30;;;;;;5033339;28;20402;-77
2022/04/13 08:24:18;;;;;;;27.95;13.02;;;18.00;24.60;;;;;;5030995;28;20830;-74
2022/04/13 08:26:44;;;;;;;23.10;12.45;;;17.80;25.40;;;;;;5030860;28;20402;-76
2022/04/13 08:29:10;;;;;;;28.50;13.80;;;17.90;25.40;;;;;;5033967;28;20399;-77
2022/04/13 08:31:37;;;;;;;28.27;12.07;;;17.90;25.90;;;;;;5033269;28;20439;-78
2022/04/13 08:34:03;;;;;;;32.30;13.50;;;17.90;25.70;;;;;;5027382;28;20452;-76
2022/04/13 08:36:29;;;;;;;29.20;12.60;;;18.10;25.20;;;;;;5032127;28;20431;-78
2022/04/13 08:38:54;;;;;;;29.52;12.80;;;18.20;24.50;;;;;;5036704;28;20936;-77
2022/04/13 08:41:45;;;;;;;33.17;14.30;;;18.30;24.60;;;;;;5025829;28;20411;-75
2022/04/13 08:44:22;;;;;;;28.88;13.90;;;18.60;23.50;;;;;;5026467;28;20434;-77
2022/04/13 08:46:50;;;;;;;23.95;13.43;;;18.70;23.50;;;;;;5032708;28;20453;-76
2022/04/13 08:49:17;;;;;;;35.70;13.95;;;18.90;23.10;;;;;;5029014;28;20439;-76
2022/04/13 08:51:45;;;;;;;37.50;14.48;;;18.90;22.20;;;;;;5036579;28;20521;-77
2022/04/13 08:54:18;;;;;;;31.35;14.27;;;18.90;22.50;;;;;;5034170;28;20411;-75
2022/04/13 08:56:49;;;;;;;26.53;13.70;;;19.00;22.50;;;;;;5031508;28;20463;-75
2022/04/13 08:59:43;;;;;;;35.58;14.90;;;19.30;21.80;;;;;;5031978;28;20894;-75
2022/04/13 09:02:47;;;;;;;32.25;14.85;;;19.30;21.40;;;;;;5029501;28;20408;-75
2022/04/13 09:05:16;;;;;;;31.52;15.18;;;19.50;20.70;;;;;;5027995;28;20812;-75
2022/04/13 09:07:42;;;;;;;36.15;15.23;;;19.50;21.40;;;;;;5044268;28;20915;-75
2022/04/13 09:10:16;;;;;;;32.20;14.20;;;19.50;21.80;;;;;;5026353;28;20420;-76
2022/04/13 09:12:43;;;;;;;29.80;14.10;;;20.00;20.60;;;;;;5025791;28;20404;-76
2022/04/13 09:15:11;;;;;;;32.60;14.85;;;20.10;20.70;;;;;;5032032;28;20406;-76
2022/04/13 09:17:37;;;;;;;29.83;13.25;;;20.50;19.80;;;;;;5025908;28;20407;-78
2022/04/13 09:20:03;;;;;;;31.50;14.80;;;20.80;18.90;;;;;;5031540;28;20396;-77
2022/04/13 09:22:31;;;;;;;30.77;14.53;;;20.50;18.90;;;;;;5032821;28;20406;-77
2022/04/13 09:24:58;;;;;;;31.35;14.75;;;20.30;19.30;;;;;;5027293;28;20416;-75
2022/04/13 09:27:25;;;;;;;28.92;13.38;;;20.10;19.50;;;;;;5027029;28;20421;-77
2022/04/13 09:29:51;;;;;;;28.40;13.63;;;20.10;19.70;;;;;;5034711;28;20553;-78
2022/04/13 09:32:18;;;;;;;34.22;13.90;;;20.00;19.80;;;;;;5034909;28;20403;-75
2022/04/13 09:34:44;;;;;;;29.65;13.05;;;19.70;20.30;;;;;;5040006;28;20394;-75
2022/04/13 09:37:11;;;;;;;24.55;12.52;;;19.60;21.70;;;;;;5037640;28;20393;-78
2022/04/13 09:39:37;;;;;;;35.10;14.15;;;19.40;22.30;;;;;;5030311;28;20407;-77
2022/04/13 09:42:04;;;;;;;31.77;13.32;;;19.30;22.70;;;;;;5026555;28;20813;-76
2022/04/13 09:44:30;;;;;;;31.25;14.32;;;19.30;22.90;;;;;;5023407;28;20426;-75
2022/04/13 09:47:06;;;;;;;32.97;14.68;;;19.20;23.10;;;;;;5025244;28;20436;-79
2022/04/13 09:49:32;;;;;;;29.70;13.80;;;19.10;23.20;;;;;;5024471;28;20523;-79
2022/04/13 09:51:59;;;;;;;32.63;13.98;;;19.20;23.30;;;;;;5045052;28;20398;-82
2022/04/13 09:54:25;;;;;;;31.53;14.10;;;19.60;22.50;;;;;;4973712;28;1785043;-76
2022/04/13 09:56:51;;;;;;;34.28;14.90;;;20.00;21.20;;;;;;5034105;28;20467;-75
2022/04/13 09:59:30;;;;;;;41.17;14.83;;;19.90;21.00;;;;;;5033842;28;20931;-76
2022/04/13 10:01:57;;;;;;;37.35;15.65;;;19.90;21.20;;;;;;5046571;28;20419;-75
2022/04/13 10:04:26;;;;;;;32.30;15.10;;;19.80;21.60;;;;;;5037960;28;20414;-75
2022/04/13 10:06:52;;;;;;;30.50;14.77;;;19.70;21.60;;;;;;5049895;28;20403;-74
2022/04/13 10:09:19;;;;;;;37.78;15.25;;;19.70;21.70;;;;;;5039113;28;20399;-78
2022/04/13 10:12:03;;;;;;;39.90;15.43;;;19.90;21.60;;;;;;5037129;28;20395;-77
2022/04/13 10:14:29;;;;;;;32.33;14.15;;;20.30;21.50;;;;;;5037928;28;20514;-75
2022/04/13 10:17:05;;;;;;;33.22;13.73;;;20.50;20.40;;;;;;5029010;28;20393;-75
2022/04/13 10:19:31;;;;;;;27.70;11.60;;;20.60;20.00;;;;;;5017512;28;20393;-77
2022/04/13 10:21:59;;;;;;;22.95;11.57;;;20.40;20.60;;;;;;5016829;28;20406;-78
2022/04/13 10:24:30;;;;;;;20.00;9.30;;;20.50;20.00;;;;;;5033515;28;20444;-81
2022/04/13 10:27:12;;;;;;;23.35;9.60;;;20.80;18.80;;;;;;5026872;28;20396;-76
2022/04/13 10:29:42;;;;;;;22.05;11.05;;;20.90;18.70;;;;;;5014696;28;20483;-76
2022/04/13 10:32:16;;;;;;;19.88;10.10;;;20.80;19.30;;;;;;5017643;28;20389;-78
2022/04/13 10:34:55;;;;;;;26.03;11.77;;;20.70;19.90;;;;;;5017013;28;20392;-77
2022/04/13 10:37:26;;;;;;;19.88;9.90;;;20.80;20.00;;;;;;5017542;28;20389;-77
2022/04/13 10:39:58;;;;;;;20.35;9.88;;;20.80;19.30;;;;;;5023658;28;20447;-77
2022/04/13 10:42:36;;;;;;;20.52;9.57;;;20.90;19.80;;;;;;5009751;28;20467;-77
2022/04/13 10:45:13;;;;;;;23.13;8.68;;;21.20;18.90;;;;;;5015553;28;20408;-76
2022/04/13 10:48:01;;;;;;;23.77;11.13;;;21.00;18.90;;;;;;5013569;28;20774;-76
2022/04/13 10:50:37;;;;;;;21.13;9.30;;;20.90;20.30;;;;;;5017759;28;20416;-78
2022/04/13 10:53:24;;;;;;;17.45;9.00;;;21.40;19.20;;;;;;5024979;28;20416;-77
2022/04/13 10:56:01;;;;;;;18.77;7.95;;;21.90;17.80;;;;;;5011621;28;20416;-77
2022/04/13 10:58:47;;;;;;;24.30;7.88;;;22.40;16.40;;;;;;5018564;28;20385;-76
2022/04/13 11:01:15;;;;;;;18.38;8.13;;;22.80;15.70;;;;;;5008894;28;20395;-76
2022/04/13 11:03:42;;;;;;;16.05;8.27;;;21.70;18.20;;;;;;5005966;28;20416;-76
2022/04/13 11:06:11;;;;;;;19.52;8.23;;;21.70;18.00;;;;;;5020092;28;20431;-75
2022/04/13 11:09:17;;;;;;;15.05;7.75;;;21.50;18.70;;;;;;5012425;28;20408;-77
2022/04/13 11:11:44;;;;;;;14.48;6.25;;;21.70;18.00;;;;;;5020446;28;20404;-75
2022/04/13 11:15:05;;;;;;;13.90;5.85;;;21.50;18.40;;;;;;5013572;28;20789;-76
2022/04/13 11:17:31;;;;;;;11.45;6.15;;;21.10;18.80;;;;;;4991448;28;20510;-74
2022/04/13 11:20:16;;;;;;;9.52;5.90;;;20.90;19.40;;;;;;5010153;28;20416;-77
2022/04/13 11:22:43;;;;;;;11.73;6.50;;;20.70;20.20;;;;;;5006219;28;20462;-76
2022/04/13 11:25:08;;;;;;;12.10;6.20;;;20.80;19.50;;;;;;5001671;28;20460;-76
2022/04/13 11:27:53;;;;;;;12.15;6.10;;;21.10;19.70;;;;;;5000252;28;20413;-77
2022/04/13 11:30:19;;;;;;;18.58;7.13;;;21.30;19.10;;;;;;5000014;28;20417;-76
2022/04/13 11:32:45;;;;;;;17.77;6.80;;;21.30;19.70;;;;;;5015939;28;20894;-75
2022/04/13 11:35:25;;;;;;;13.30;6.63;;;21.30;19.60;;;;;;5003320;28;20407;-79
2022/04/13 11:38:08;;;;;;;16.70;6.80;;;21.70;18.80;;;;;;5003105;28;20416;-76
2022/04/13 11:40:34;;;;;;;15.13;6.10;;;21.90;18.30;;;;;;5004786;28;20915;-77
2022/04/13 11:43:02;;;;;;;11.55;6.22;;;22.30;18.00;;;;;;5001640;28;20411;-75
2022/04/13 11:45:29;;;;;;;10.57;6.20;;;22.00;17.60;;;;;;5003786;28;20452;-76
2022/04/13 11:47:58;;;;;;;12.15;5.80;;;21.70;18.60;;;;;;5021745;28;20412;-77
2022/04/13 11:50:29;;;;;;;13.57;6.03;;;21.70;18.20;;;;;;4998452;28;20410;-80
2022/04/13 11:53:13;;;;;;;13.60;6.05;;;21.60;17.60;;;;;;5011480;28;20445;-74
2022/04/13 11:55:42;;;;;;;16.40;5.60;;;21.50;18.20;;;;;;5001585;28;20403;-75
2022/04/13 11:58:07;;;;;;;9.63;4.90;;;21.70;17.50;;;;;;4993510;28;20383;-76
2022/04/13 12:00:50;;;;;;;12.93;5.20;;;22.00;16.40;;;;;;4993233;28;20941;-75
2022/04/13 12:03:20;;;;;;;9.10;4.80;;;22.30;16.40;;;;;;4998863;28;20431;-75
2022/04/13 12:05:48;;;;;;;12.93;6.10;;;22.70;16.10;;;;;;5029196;28;20384;-76
2022/04/13 12:08:21;;;;;;;20.42;7.95;;;23.00;16.60;;;;;;5015199;28;20424;-75
2022/04/13 12:10:56;;;;;;;15.30;6.43;;;23.10;16.30;;;;;;5033061;28;20404;-75
2022/04/13 12:13:21;;;;;;;14.07;6.10;;;23.00;16.00;;;;;;5020112;28;20457;-74
2022/04/13 12:15:50;;;;;;;12.23;5.40;;;22.80;16.30;;;;;;5020309;28;20416;-76
2022/04/13 12:18:17;;;;;;;16.88;5.60;;;22.50;16.70;;;;;;5017468;28;20746;-74
2022/04/13 12:20:43;;;;;;;11.73;5.50;;;21.90;17.80;;;;;;5008273;28;20394;-76
2022/04/13 12:23:20;;;;;;;18.90;6.80;;;21.40;18.90;;;;;;5012522;28;20747;-75
2022/04/13 12:25:48;;;;;;;19.42;6.28;;;21.00;19.40;;;;;;4996412;28;20406;-75
2022/04/13 12:28:15;;;;;;;17.50;6.30;;;20.90;20.00;;;;;;5000501;28;20734;-73
2022/04/13 12:30:41;;;;;;;20.85;6.15;;;21.10;19.20;;;;;;4997556;28;20407;-74
2022/04/13 12:33:21;;;;;;;11.30;6.00;;;21.50;17.90;;;;;;4994652;28;20445;-74
2022/04/13 12:36:07;;;;;;;12.90;7.93;;;21.80;16.70;;;;;;4997096;28;20885;-75
2022/04/13 12:38:35;;;;;;;15.88;6.60;;;21.90;17.40;;;;;;5013439;28;20377;-75
2022/04/13 12:41:03;;;;;;;16.95;7.32;;;21.70;18.20;;;;;;5015564;28;20516;-75
2022/04/13 12:43:30;;;;;;;17.58;7.30;;;21.30;19.80;;;;;;5014085;28;20728;-75
2022/04/13 12:45:56;;;;;;;11.93;7.38;;;20.90;20.20;;;;;;4996477;28;20391;-75